createdAt,value
2017-09-03T00:00:16.255Z,13.90
2017-09-03T00:02:42.227Z,13.90
2017-09-03T00:05:08.166Z,14.00
2017-09-03T00:07:34.149Z,14.00
2017-09-03T00:10:00.114Z,13.90
2017-09-03T00:12:26.071Z,13.90
2017-09-03T00:14:52.041Z,13.90
2017-09-03T00:17:17.974Z,13.90
2017-09-03T00:19:43.954Z,13.90
2017-09-03T00:22:09.961Z,13.80
2017-09-03T00:24:35.941Z,13.80
2017-09-03T00:27:01.882Z,13.80
2017-09-03T00:29:27.866Z,13.70
2017-09-03T00:31:53.829Z,13.70
2017-09-03T00:34:19.765Z,13.70
2017-09-03T00:36:45.734Z,13.70
2017-09-03T00:39:11.675Z,13.70
2017-09-03T00:41:37.665Z,13.70
2017-09-03T00:44:03.601Z,13.70
2017-09-03T00:46:29.537Z,13.70
2017-09-03T00:48:55.527Z,13.70
2017-09-03T00:51:21.513Z,13.70
2017-09-03T00:53:47.446Z,13.60
2017-09-03T00:56:13.383Z,13.60
2017-09-03T00:58:39.363Z,13.60
2017-09-03T01:01:05.310Z,13.60
2017-09-03T01:03:31.289Z,13.50
2017-09-03T01:05:57.238Z,13.60
2017-09-03T01:08:23.230Z,13.50
2017-09-03T01:10:49.201Z,13.50
2017-09-03T01:13:15.133Z,13.50
2017-09-03T01:15:41.127Z,13.50
2017-09-03T01:18:07.066Z,13.50
2017-09-03T01:20:33.087Z,13.50
2017-09-03T01:22:59.040Z,13.50
2017-09-03T01:25:25.014Z,13.50
2017-09-03T01:27:50.990Z,13.40
2017-09-03T01:30:16.958Z,13.40
2017-09-03T01:32:42.946Z,13.30
2017-09-03T01:35:08.891Z,13.40
2017-09-03T01:37:34.833Z,13.30
2017-09-03T01:40:00.801Z,13.40
2017-09-03T01:42:26.798Z,13.40
2017-09-03T01:44:52.729Z,13.30
2017-09-03T01:47:18.669Z,13.30
2017-09-03T01:49:44.652Z,13.40
2017-09-03T01:52:10.592Z,13.20
2017-09-03T01:54:36.534Z,13.30
2017-09-03T01:57:02.501Z,13.30
2017-09-03T01:59:28.493Z,13.20
2017-09-03T02:01:54.481Z,13.20
2017-09-03T02:04:20.460Z,13.10
2017-09-03T02:06:46.393Z,13.00
2017-09-03T02:09:12.373Z,13.00
2017-09-03T02:11:38.326Z,13.10
2017-09-03T02:14:04.308Z,13.20
2017-09-03T02:16:30.257Z,13.20
2017-09-03T02:18:56.201Z,13.10
2017-09-03T02:21:22.189Z,13.10
2017-09-03T02:23:48.157Z,13.00
2017-09-03T02:26:14.128Z,13.00
2017-09-03T02:28:40.069Z,13.10
2017-09-03T02:31:06.050Z,13.10
2017-09-03T02:33:31.985Z,13.10
2017-09-03T02:35:57.970Z,13.10
2017-09-03T02:38:23.921Z,13.00
2017-09-03T02:40:49.900Z,13.00
2017-09-03T02:43:15.852Z,12.90
2017-09-03T02:45:41.805Z,12.80
2017-09-03T02:48:07.780Z,12.70
2017-09-03T02:50:33.712Z,12.70
2017-09-03T02:52:59.696Z,12.60
2017-09-03T02:55:25.681Z,12.60
2017-09-03T02:57:51.622Z,12.60
2017-09-03T03:00:17.581Z,12.70
2017-09-03T03:02:43.512Z,12.70
2017-09-03T03:05:09.502Z,12.60
2017-09-03T03:07:35.445Z,12.50
2017-09-03T03:10:01.402Z,12.50
2017-09-03T03:12:27.410Z,12.60
2017-09-03T03:14:53.365Z,12.50
2017-09-03T03:17:19.336Z,12.30
2017-09-03T03:19:45.271Z,12.30
2017-09-03T03:22:11.274Z,12.50
2017-09-03T03:24:37.201Z,12.50
2017-09-03T03:27:03.141Z,12.50
2017-09-03T03:29:29.125Z,12.50
2017-09-03T03:31:55.108Z,12.50
2017-09-03T03:34:21.052Z,12.40
2017-09-03T03:36:47.037Z,12.40
2017-09-03T03:39:12.981Z,12.40
2017-09-03T03:41:38.920Z,12.40
2017-09-03T03:44:04.884Z,12.40
2017-09-03T03:46:30.824Z,12.30
2017-09-03T03:48:56.805Z,12.30
2017-09-03T03:51:22.743Z,12.30
2017-09-03T03:53:48.724Z,12.30
2017-09-03T03:56:14.669Z,12.30
2017-09-03T03:58:40.636Z,12.30
2017-09-03T04:01:06.577Z,12.30
2017-09-03T04:03:32.569Z,12.30
2017-09-03T04:05:58.552Z,12.30
2017-09-03T04:08:24.493Z,12.30
2017-09-03T04:10:50.461Z,12.30
2017-09-03T04:13:16.401Z,12.30
2017-09-03T04:15:42.362Z,12.20
2017-09-03T04:18:08.301Z,12.20
2017-09-03T04:20:34.268Z,12.20
2017-09-03T04:23:00.213Z,12.20
2017-09-03T04:25:26.184Z,12.30
2017-09-03T04:27:52.152Z,12.30
2017-09-03T04:30:18.089Z,12.20
2017-09-03T04:32:44.088Z,12.20
2017-09-03T04:35:10.025Z,12.20
2017-09-03T04:37:35.965Z,12.30
2017-09-03T04:40:01.923Z,12.30
2017-09-03T04:42:27.873Z,12.30
2017-09-03T04:44:53.872Z,12.40
2017-09-03T04:47:19.823Z,12.40
2017-09-03T04:49:45.809Z,12.50
2017-09-03T04:52:11.753Z,12.40
2017-09-03T04:54:37.720Z,12.40
2017-09-03T04:57:03.700Z,12.40
2017-09-03T04:59:29.685Z,12.40
2017-09-03T05:01:55.645Z,12.40
2017-09-03T05:04:21.624Z,12.40
2017-09-03T05:06:47.589Z,12.40
2017-09-03T05:09:13.524Z,12.30
2017-09-03T05:11:39.492Z,12.30
2017-09-03T05:14:05.440Z,12.30
2017-09-03T05:16:31.414Z,12.40
2017-09-03T05:18:57.362Z,12.30
2017-09-03T05:21:23.357Z,12.40
2017-09-03T05:23:49.298Z,12.30
2017-09-03T05:26:15.285Z,12.30
2017-09-03T05:28:41.216Z,12.30
2017-09-03T05:31:07.153Z,12.30
2017-09-03T05:33:33.144Z,12.30
2017-09-03T05:35:59.093Z,12.30
2017-09-03T05:38:25.046Z,12.30
2017-09-03T05:40:51.029Z,12.20
2017-09-03T05:43:16.964Z,12.20
2017-09-03T05:45:42.916Z,12.30
2017-09-03T05:48:08.888Z,12.40
2017-09-03T05:50:34.841Z,12.40
2017-09-03T05:53:00.849Z,12.50
2017-09-03T05:55:26.840Z,12.60
2017-09-03T05:57:52.785Z,12.40
2017-09-03T06:00:18.765Z,12.50
2017-09-03T06:02:44.709Z,12.60
2017-09-03T06:05:10.682Z,12.60
2017-09-03T06:07:36.620Z,12.60
2017-09-03T06:10:02.594Z,12.50
2017-09-03T06:12:28.570Z,12.60
2017-09-03T06:14:54.522Z,12.70
2017-09-03T06:17:20.507Z,12.60
2017-09-03T06:19:46.444Z,12.60
2017-09-03T06:22:12.393Z,12.70
2017-09-03T06:24:38.374Z,12.70
2017-09-03T06:27:04.313Z,12.80
2017-09-03T06:29:30.300Z,12.80
2017-09-03T06:31:56.281Z,12.80
2017-09-03T06:34:22.212Z,12.80
2017-09-03T06:36:48.149Z,12.80
2017-09-03T06:39:14.146Z,12.90
2017-09-03T06:41:40.090Z,12.90
2017-09-03T06:44:06.032Z,13.00
2017-09-03T06:46:32.021Z,13.10
2017-09-03T06:48:57.965Z,13.00
2017-09-03T06:51:23.915Z,13.10
2017-09-03T06:53:49.929Z,13.20
2017-09-03T06:56:15.873Z,13.10
2017-09-03T06:58:41.808Z,13.20
2017-09-03T07:01:07.781Z,13.30
2017-09-03T07:03:33.716Z,13.30
2017-09-03T07:05:59.715Z,13.20
2017-09-03T07:08:25.676Z,13.30
2017-09-03T07:10:51.625Z,13.40
2017-09-03T07:13:17.597Z,13.40
2017-09-03T07:15:43.564Z,13.40
2017-09-03T07:18:09.501Z,13.30
2017-09-03T07:20:35.464Z,13.20
2017-09-03T07:23:01.449Z,13.40
2017-09-03T07:25:27.393Z,13.50
2017-09-03T07:27:53.328Z,13.60
2017-09-03T07:30:19.296Z,13.60
2017-09-03T07:32:45.244Z,13.70
2017-09-03T07:35:11.225Z,13.80
2017-09-03T07:37:37.173Z,13.80
2017-09-03T07:40:03.160Z,13.90
2017-09-03T07:42:29.105Z,13.80
2017-09-03T07:44:55.052Z,13.80
2017-09-03T07:47:21.029Z,14.00
2017-09-03T07:49:46.977Z,14.10
2017-09-03T07:52:12.921Z,14.20
2017-09-03T07:54:38.940Z,14.20
2017-09-03T07:57:04.916Z,14.30
2017-09-03T07:59:30.857Z,14.30
2017-09-03T08:01:56.800Z,14.40
2017-09-03T08:04:22.781Z,14.40
2017-09-03T08:06:48.717Z,14.60
2017-09-03T08:09:14.673Z,14.50
2017-09-03T08:11:40.666Z,14.40
2017-09-03T08:14:06.610Z,14.60
2017-09-03T08:16:32.589Z,14.60
2017-09-03T08:18:58.532Z,14.60
2017-09-03T08:21:24.505Z,14.80
2017-09-03T08:23:50.432Z,14.80
2017-09-03T08:26:16.403Z,14.80
2017-09-03T08:28:42.382Z,14.80
2017-09-03T08:31:08.367Z,14.90
2017-09-03T08:33:34.304Z,15.00
2017-09-03T08:36:00.298Z,14.90
2017-09-03T08:38:26.265Z,15.00
2017-09-03T08:40:52.219Z,14.90
2017-09-03T08:43:18.205Z,15.00
2017-09-03T08:45:44.149Z,14.80
2017-09-03T08:48:10.093Z,14.70
2017-09-03T08:50:36.061Z,14.80
2017-09-03T08:53:02.001Z,14.90
2017-09-03T08:55:27.978Z,15.00
2017-09-03T08:57:53.928Z,15.10
2017-09-03T09:00:19.887Z,15.00
2017-09-03T09:02:45.881Z,15.10
2017-09-03T09:05:11.870Z,15.10
2017-09-03T09:07:37.841Z,15.20
2017-09-03T09:10:03.778Z,15.20
2017-09-03T09:12:29.756Z,15.30
2017-09-03T09:14:55.697Z,15.30
2017-09-03T09:17:21.769Z,15.50
2017-09-03T09:19:47.729Z,15.40
2017-09-03T09:22:13.703Z,15.30
2017-09-03T09:24:39.676Z,15.40
2017-09-03T09:27:05.649Z,15.30
2017-09-03T09:29:31.593Z,15.40
2017-09-03T09:31:57.569Z,15.40
2017-09-03T09:34:23.513Z,15.60
2017-09-03T09:36:49.461Z,15.50
2017-09-03T09:39:15.437Z,15.50
2017-09-03T09:41:41.387Z,15.40
2017-09-03T09:44:07.385Z,15.60
2017-09-03T09:46:33.353Z,15.70
2017-09-03T09:48:59.305Z,15.70
2017-09-03T09:51:25.277Z,15.70
2017-09-03T09:53:51.272Z,15.70
2017-09-03T09:56:25.817Z,15.80
2017-09-03T09:58:51.895Z,15.70
2017-09-03T10:01:17.837Z,16.00
2017-09-03T10:03:43.809Z,16.20
2017-09-03T10:06:09.785Z,16.20
2017-09-03T10:08:35.750Z,16.20
2017-09-03T10:11:01.708Z,16.10
2017-09-03T10:13:27.676Z,16.00
2017-09-03T10:15:53.608Z,16.20
2017-09-03T10:18:19.569Z,16.20
2017-09-03T10:20:45.562Z,16.30
2017-09-03T10:23:11.492Z,16.50
2017-09-03T10:25:37.433Z,16.50
2017-09-03T10:28:03.435Z,16.40
2017-09-03T10:30:29.425Z,16.60
2017-09-03T10:32:55.360Z,16.40
2017-09-03T10:35:21.301Z,16.70
2017-09-03T10:37:47.325Z,16.80
2017-09-03T10:40:13.314Z,17.00
2017-09-03T10:42:39.252Z,17.00
2017-09-03T10:45:05.208Z,17.00
2017-09-03T10:47:31.193Z,16.90
2017-09-03T10:49:57.172Z,16.90
2017-09-03T10:52:23.104Z,16.50
2017-09-03T10:54:49.065Z,16.70
2017-09-03T10:57:15.042Z,16.90
2017-09-03T10:59:41.813Z,17.10
2017-09-03T11:02:07.795Z,16.70
2017-09-03T11:04:33.741Z,16.50
2017-09-03T11:06:59.697Z,16.60
2017-09-03T11:09:25.669Z,16.90
2017-09-03T11:11:51.648Z,17.20
2017-09-03T11:14:17.584Z,17.10
2017-09-03T11:16:43.536Z,16.90
2017-09-03T11:19:09.525Z,16.70
2017-09-03T11:21:35.490Z,16.80
2017-09-03T11:24:01.444Z,16.90
2017-09-03T11:26:27.435Z,16.70
2017-09-03T11:28:53.376Z,17.00
2017-09-03T11:31:19.316Z,17.30
2017-09-03T11:33:45.347Z,17.20
2017-09-03T11:36:11.289Z,17.30
2017-09-03T11:38:37.233Z,17.50
2017-09-03T11:41:03.217Z,17.40
2017-09-03T11:43:29.148Z,17.60
2017-09-03T11:45:55.125Z,17.20
2017-09-03T11:48:21.074Z,17.30
2017-09-03T11:50:47.076Z,17.10
2017-09-03T11:53:13.017Z,17.40
2017-09-03T11:55:38.957Z,17.70
2017-09-03T11:58:04.976Z,17.90
2017-09-03T12:00:30.941Z,17.90
2017-09-03T12:02:56.884Z,18.00
2017-09-03T12:05:22.837Z,17.80
2017-09-03T12:07:48.908Z,17.70
2017-09-03T12:10:14.881Z,17.30
2017-09-03T12:12:40.812Z,17.60
2017-09-03T12:15:06.823Z,17.60
2017-09-03T12:17:32.781Z,17.90
2017-09-03T12:19:58.721Z,17.80
2017-09-03T12:22:24.692Z,17.50
2017-09-03T12:24:50.624Z,17.80
2017-09-03T12:27:16.617Z,18.10
2017-09-03T12:29:42.557Z,18.10
2017-09-03T12:32:08.517Z,18.20
2017-09-03T12:34:34.510Z,18.50
2017-09-03T12:37:00.453Z,19.00
2017-09-03T12:39:26.439Z,19.30
2017-09-03T12:41:52.481Z,19.00
2017-09-03T12:44:18.417Z,19.00
2017-09-03T12:46:44.356Z,19.10
2017-09-03T12:49:10.317Z,19.00
2017-09-03T12:51:36.325Z,19.80
2017-09-03T12:54:02.281Z,19.90
2017-09-03T12:56:28.254Z,20.00
2017-09-03T12:58:54.229Z,19.50
2017-09-03T13:01:20.169Z,19.30
2017-09-03T13:03:46.157Z,20.30
2017-09-03T13:06:12.129Z,20.90
2017-09-03T13:08:38.064Z,21.60
2017-09-03T13:11:04.055Z,20.90
2017-09-03T13:13:30.033Z,20.70
2017-09-03T13:15:56.002Z,21.20
2017-09-03T13:18:21.943Z,21.30
2017-09-03T13:20:47.917Z,20.90
2017-09-03T13:23:13.870Z,21.00
2017-09-03T13:25:39.812Z,20.60
2017-09-03T13:28:05.849Z,20.60
2017-09-03T13:30:31.812Z,20.70
2017-09-03T13:32:57.790Z,20.90
2017-09-03T13:35:23.736Z,21.30
2017-09-03T13:37:49.708Z,21.30
2017-09-03T13:40:15.649Z,21.10
2017-09-03T13:42:41.629Z,21.40
2017-09-03T13:45:07.585Z,21.50
2017-09-03T13:47:33.560Z,21.30
2017-09-03T13:49:59.508Z,20.80
2017-09-03T13:52:25.497Z,21.20
2017-09-03T13:54:51.443Z,21.20
2017-09-03T13:57:17.379Z,20.70
2017-09-03T13:59:43.344Z,20.00
2017-09-03T14:02:09.308Z,20.20
2017-09-03T14:04:35.292Z,19.60
2017-09-03T14:07:01.276Z,19.80
2017-09-03T14:09:27.237Z,19.90
2017-09-03T14:11:53.229Z,19.90
2017-09-03T14:14:19.165Z,20.10
2017-09-03T14:16:45.109Z,19.70
2017-09-03T14:19:11.101Z,19.70
2017-09-03T14:21:37.051Z,19.70
2017-09-03T14:24:02.997Z,19.80
2017-09-03T14:26:28.985Z,19.10
2017-09-03T14:28:54.926Z,19.10
2017-09-03T14:31:20.864Z,18.90
2017-09-03T14:33:46.853Z,18.70
2017-09-03T14:36:12.852Z,18.00
2017-09-03T14:38:38.824Z,17.80
2017-09-03T14:41:04.765Z,17.60
2017-09-03T14:43:30.746Z,17.50
2017-09-03T14:45:56.691Z,17.40
2017-09-03T14:48:22.657Z,17.00
2017-09-03T14:50:48.617Z,17.10
2017-09-03T14:53:14.578Z,17.50
2017-09-03T14:55:40.545Z,17.90
2017-09-03T14:58:06.533Z,18.00
2017-09-03T15:00:32.469Z,17.60
2017-09-03T15:02:58.467Z,17.40
2017-09-03T15:05:24.449Z,17.60
2017-09-03T15:07:50.389Z,17.70
2017-09-03T15:10:16.424Z,17.90
2017-09-03T15:12:43.109Z,17.80
2017-09-03T15:15:09.053Z,17.80
2017-09-03T15:17:35.050Z,17.20
2017-09-03T15:20:01.020Z,17.50
2017-09-03T15:22:27.004Z,17.30
2017-09-03T15:24:53.013Z,17.60
2017-09-03T15:27:19.059Z,17.60
2017-09-03T15:29:45.054Z,17.90
2017-09-03T15:32:10.999Z,18.00
2017-09-03T15:34:37.009Z,17.50
2017-09-03T15:37:02.952Z,17.50
2017-09-03T15:39:28.893Z,17.50
2017-09-03T15:41:54.873Z,17.50
2017-09-03T15:44:20.813Z,17.20
2017-09-03T15:46:46.807Z,17.10
2017-09-03T15:49:12.804Z,17.40
2017-09-03T15:51:38.833Z,17.50
2017-09-03T15:54:04.804Z,17.40
2017-09-03T15:56:30.753Z,17.20
2017-09-03T15:58:56.736Z,17.30
2017-09-03T16:01:22.677Z,17.60
2017-09-03T16:03:48.673Z,17.80
2017-09-03T16:06:14.633Z,18.00
2017-09-03T16:08:41.320Z,18.10
2017-09-03T16:11:07.346Z,18.10
2017-09-03T16:13:33.324Z,18.20
2017-09-03T16:15:59.268Z,18.20
2017-09-03T16:18:25.252Z,18.30
2017-09-03T16:20:51.198Z,18.30
2017-09-03T16:23:17.157Z,18.30
2017-09-03T16:25:43.161Z,18.30
2017-09-03T16:28:09.106Z,18.30
2017-09-03T16:30:35.091Z,18.30
2017-09-03T16:33:01.053Z,18.30
2017-09-03T16:35:27.041Z,18.20
2017-09-03T16:37:53.044Z,18.30
2017-09-03T16:40:19.040Z,18.30
2017-09-03T16:42:44.997Z,18.20
2017-09-03T16:45:10.974Z,18.30
2017-09-03T16:47:36.939Z,18.20
2017-09-03T16:50:02.966Z,18.20
2017-09-03T16:52:28.925Z,18.20
2017-09-03T16:54:54.873Z,18.10
2017-09-03T16:57:20.866Z,18.10
2017-09-03T16:59:46.932Z,18.00
2017-09-03T17:02:12.885Z,17.90
2017-09-03T17:04:38.828Z,17.90
2017-09-03T17:07:04.803Z,17.80
2017-09-03T17:09:30.749Z,17.70
2017-09-03T17:11:56.765Z,17.70
2017-09-03T17:14:22.713Z,17.60
2017-09-03T17:16:48.669Z,17.60
2017-09-03T17:19:14.673Z,17.50
2017-09-03T17:21:40.621Z,17.50
2017-09-03T17:24:06.601Z,17.50
2017-09-03T17:26:32.629Z,17.40
2017-09-03T17:28:58.692Z,17.40
2017-09-03T17:31:24.681Z,17.40
2017-09-03T17:33:50.711Z,17.30
2017-09-03T17:36:26.705Z,17.20
2017-09-03T17:38:52.688Z,17.10
2017-09-03T17:41:20.594Z,17.00
2017-09-03T17:43:46.568Z,16.90
2017-09-03T17:46:12.514Z,16.90
2017-09-03T17:48:38.512Z,16.90
2017-09-03T17:51:04.456Z,16.80
2017-09-03T17:53:30.404Z,16.80
2017-09-03T17:55:56.382Z,16.60
2017-09-03T17:58:22.361Z,16.40
2017-09-03T18:00:48.348Z,16.10
2017-09-03T18:03:14.304Z,16.00
2017-09-03T18:05:40.294Z,16.20
2017-09-03T18:08:06.265Z,16.20
2017-09-03T18:10:32.241Z,16.20
2017-09-03T18:12:58.225Z,16.00
2017-09-03T18:15:24.178Z,16.00
2017-09-03T18:17:50.189Z,15.90
2017-09-03T18:20:16.168Z,15.90
2017-09-03T18:22:42.193Z,15.70
2017-09-03T18:25:08.188Z,15.80
2017-09-03T18:27:34.128Z,15.70
2017-09-03T18:30:00.159Z,15.70
2017-09-03T18:32:26.137Z,15.60
2017-09-03T18:34:52.120Z,15.60
2017-09-03T18:37:18.068Z,15.60
2017-09-03T18:39:44.044Z,15.70
2017-09-03T18:42:10.045Z,15.60
2017-09-03T18:44:36.001Z,15.50
2017-09-03T18:47:01.953Z,15.60
2017-09-03T18:49:29.764Z,15.60
2017-09-03T18:51:59.607Z,15.50
2017-09-03T18:54:31.722Z,15.30
2017-09-03T18:56:57.665Z,15.30
2017-09-03T18:59:38.665Z,15.30
2017-09-03T19:02:04.613Z,15.30
2017-09-03T19:04:35.498Z,15.30
2017-09-03T19:07:01.956Z,15.20
2017-09-03T19:09:27.927Z,15.20
2017-09-03T19:11:53.877Z,15.10
2017-09-03T19:14:19.873Z,15.10
2017-09-03T19:16:45.826Z,15.10
2017-09-03T19:19:12.421Z,15.20
2017-09-03T19:21:38.421Z,15.10
2017-09-03T19:24:04.374Z,15.00
2017-09-03T19:26:30.316Z,15.00
2017-09-03T19:28:56.309Z,15.00
2017-09-03T19:31:22.296Z,14.90
2017-09-03T19:33:48.313Z,14.80
2017-09-03T19:36:14.300Z,14.80
2017-09-03T19:38:42.081Z,14.70
2017-09-03T19:41:08.078Z,14.80
2017-09-03T19:43:34.061Z,14.70
2017-09-03T19:46:00.000Z,14.60
2017-09-03T19:48:25.969Z,14.50
2017-09-03T19:50:51.925Z,14.40
2017-09-03T19:53:17.945Z,14.40
2017-09-03T19:55:43.929Z,14.40
2017-09-03T19:58:09.924Z,14.40
2017-09-03T20:00:35.926Z,14.40
2017-09-03T20:03:01.873Z,14.20
2017-09-03T20:05:27.845Z,14.20
2017-09-03T20:07:53.819Z,14.20
2017-09-03T20:10:19.756Z,14.10
2017-09-03T20:12:45.733Z,14.10
2017-09-03T20:15:11.676Z,14.10
2017-09-03T20:17:37.641Z,14.10
2017-09-03T20:20:03.622Z,14.10
2017-09-03T20:22:29.604Z,14.10
2017-09-03T20:24:55.536Z,14.20
2017-09-03T20:27:21.524Z,14.20
2017-09-03T20:29:47.464Z,14.20
2017-09-03T20:32:13.400Z,14.10
2017-09-03T20:34:39.389Z,14.00
2017-09-03T20:37:05.328Z,13.90
2017-09-03T20:39:31.281Z,14.00
2017-09-03T20:41:57.241Z,14.00
2017-09-03T20:44:23.181Z,14.00
2017-09-03T20:46:49.174Z,14.00
2017-09-03T20:49:15.132Z,14.00
2017-09-03T20:51:41.061Z,14.00
2017-09-03T20:54:07.040Z,13.90
2017-09-03T20:56:32.986Z,14.00
2017-09-03T20:58:59.304Z,14.00
2017-09-03T21:01:25.236Z,14.00
2017-09-03T21:03:51.245Z,14.00
2017-09-03T21:06:17.221Z,14.00
2017-09-03T21:08:43.162Z,14.10
2017-09-03T21:11:09.111Z,14.10
2017-09-03T21:13:35.082Z,14.20
2017-09-03T21:16:01.093Z,14.20
2017-09-03T21:18:27.060Z,14.20
2017-09-03T21:20:53.048Z,14.20
2017-09-03T21:23:18.998Z,14.10
2017-09-03T21:25:45.329Z,14.10
2017-09-03T21:28:11.321Z,14.10
2017-09-03T21:30:37.252Z,14.10
2017-09-03T21:33:03.193Z,14.10
2017-09-03T21:35:29.173Z,14.20
2017-09-03T21:37:55.161Z,14.10
2017-09-03T21:40:21.112Z,14.10
2017-09-03T21:42:47.052Z,14.00
2017-09-03T21:45:13.028Z,13.90
2017-09-03T21:47:38.965Z,13.90
2017-09-03T21:50:04.908Z,13.80
2017-09-03T21:52:30.897Z,13.80
2017-09-03T21:54:56.968Z,13.70
2017-09-03T21:57:22.945Z,13.70
2017-09-03T21:59:48.914Z,13.70
2017-09-03T22:02:14.897Z,13.70
2017-09-03T22:04:40.842Z,13.70
2017-09-03T22:07:13.944Z,13.60
2017-09-03T22:09:39.892Z,13.60
2017-09-03T22:12:05.857Z,13.50
2017-09-03T22:14:31.806Z,13.50
2017-09-03T22:16:57.824Z,13.50
2017-09-03T22:19:23.764Z,13.40
2017-09-03T22:21:49.721Z,13.40
2017-09-03T22:24:15.717Z,13.40
2017-09-03T22:26:41.648Z,13.40
2017-09-03T22:29:07.632Z,13.30
2017-09-03T22:31:33.569Z,13.30
2017-09-03T22:33:59.506Z,13.20
2017-09-03T22:36:25.505Z,13.20
2017-09-03T22:38:51.450Z,13.30
2017-09-03T22:41:17.397Z,13.30
2017-09-03T22:43:43.395Z,13.30
2017-09-03T22:46:09.375Z,13.20
2017-09-03T22:48:35.384Z,13.10
2017-09-03T22:51:01.320Z,13.10
2017-09-03T22:53:27.288Z,13.10
2017-09-03T22:55:53.220Z,13.00
2017-09-03T22:58:19.198Z,13.00
2017-09-03T23:00:45.177Z,12.80
2017-09-03T23:03:11.125Z,12.80
2017-09-03T23:05:37.081Z,12.80
2017-09-03T23:08:03.047Z,12.80
2017-09-03T23:10:29.033Z,12.70
2017-09-03T23:12:54.997Z,12.70
2017-09-03T23:15:20.932Z,12.60
2017-09-03T23:17:46.896Z,12.60
2017-09-03T23:20:12.845Z,12.70
2017-09-03T23:22:38.817Z,12.70
2017-09-03T23:25:04.753Z,12.60
2017-09-03T23:27:30.716Z,12.60
2017-09-03T23:29:56.715Z,12.60
2017-09-03T23:32:22.657Z,12.60
2017-09-03T23:34:48.597Z,12.60
2017-09-03T23:37:14.569Z,12.50
2017-09-03T23:39:40.511Z,12.40
2017-09-03T23:42:06.476Z,12.30
2017-09-03T23:44:32.456Z,12.40
2017-09-03T23:46:58.388Z,12.40
2017-09-03T23:49:24.380Z,12.30
2017-09-03T23:51:50.321Z,12.30
2017-09-03T23:54:16.288Z,12.20
2017-09-03T23:56:42.225Z,12.20
2017-09-03T23:59:08.202Z,12.10
